Brentwood, New York
Current Conditions -  °F | °C
As of 3:56 AM on Wednesday 28 Jan 2015 (Local Time) from KISP Reporting Station
Overcast Overcast  
Wind Chill:   Ceiling: 6000
Heat Index: 17°   Visibility: 10mi
Dew Point:   Wind: 18mph
Humidity: 59%   Direction: 330°NNW
Pressure: 29.86"   Gusts: 29mph
Location:  40.78°N, 73.25°W
Report Text: KISP 280856Z AUTO 33016G25KT 10SM FEW039 OVC060 M08/M15 A2986 RMK AO2 PK WND 32027/0832 SLP112 T10831150 51020 $
Loading
Personal Weather Stations






























Interactive Weather Map New forecast layout! Learn more

10-Day Weather Forecast

Advertisements
Track Severe Weather on mobile